Time;durP1;ratioP1;P1;durP2;ratioP2;P2;SDS_P1;SDS_P2;PMS_P1;PMS_P2;Temp;Humidity;BMP_temperature;BMP_pressure;BME280_temperature;BME280_humidity;BME280_pressure;Samples;Min_cycle;Max_cycle;Signal;HPM_P1;HPM_P2
2023/04/08 00:00:55;;;;;;;0.93;0.60;;;;;;;9.22;50.13;102724.16;5057471;28;20032;-69
2023/04/08 00:03:21;;;;;;;0.93;0.50;;;;;;;9.18;50.52;102710.19;5040752;28;20025;-68
2023/04/08 00:05:46;;;;;;;1.00;0.65;;;;;;;9.22;50.75;102717.94;5057579;28;20404;-69
2023/04/08 00:08:12;;;;;;;1.02;0.60;;;;;;;9.16;51.52;102716.66;5056958;28;20032;-69
2023/04/08 00:10:38;;;;;;;1.60;0.80;;;;;;;9.08;51.39;102705.81;5039470;28;20040;-69
2023/04/08 00:13:03;;;;;;;0.80;0.50;;;;;;;8.98;51.56;102704.97;5057749;28;20488;-69
2023/04/08 00:15:29;;;;;;;0.88;0.55;;;;;;;9.00;51.58;102698.44;5058951;28;20033;-69
2023/04/08 00:17:54;;;;;;;0.93;0.60;;;;;;;8.97;51.68;102701.41;5058497;28;20033;-69
2023/04/08 00:20:22;;;;;;;0.82;0.60;;;;;;;9.00;51.90;102705.66;5056627;28;20060;-68
2023/04/08 00:22:48;;;;;;;1.73;0.65;;;;;;;8.95;52.25;102695.34;5057757;28;20644;-69
2023/04/08 00:25:14;;;;;;;1.00;0.60;;;;;;;8.86;52.53;102691.66;5056610;28;20025;-69
2023/04/08 00:27:39;;;;;;;1.17;0.47;;;;;;;8.86;52.87;102697.03;5058227;28;20036;-70
2023/04/08 00:30:05;;;;;;;2.53;0.60;;;;;;;9.07;51.95;102699.59;5038876;28;20124;-69
2023/04/08 00:32:31;;;;;;;2.03;0.60;;;;;;;9.08;51.91;102703.13;5055941;28;20033;-69
2023/04/08 00:34:57;;;;;;;1.15;0.77;;;;;;;9.24;51.17;102714.13;5055923;28;20029;-69
2023/04/08 00:37:23;;;;;;;1.00;0.68;;;;;;;9.25;51.87;102713.13;5055070;28;20053;-69
2023/04/08 00:39:49;;;;;;;1.10;0.60;;;;;;;9.06;51.93;102691.66;5057967;28;20404;-69
2023/04/08 00:42:15;;;;;;;0.90;0.60;;;;;;;8.98;52.74;102697.75;5059653;28;20033;-69
2023/04/08 00:44:40;;;;;;;1.05;0.60;;;;;;;9.00;53.32;102717.25;5043419;28;20591;-69
2023/04/08 00:47:05;;;;;;;0.52;0.50;;;;;;;9.11;52.54;102716.28;5027304;28;20095;-69
2023/04/08 00:49:31;;;;;;;0.80;0.60;;;;;;;8.79;53.29;102690.53;5026303;28;20028;-69
2023/04/08 00:51:58;;;;;;;1.40;0.65;;;;;;;8.91;52.71;102705.53;5060223;28;20040;-69
2023/04/08 00:54:23;;;;;;;1.23;0.77;;;;;;;9.05;51.97;102716.84;5061438;28;20563;-69
2023/04/08 00:56:49;;;;;;;1.20;0.80;;;;;;;9.13;52.52;102714.25;5061542;28;20059;-69
2023/04/08 00:59:16;;;;;;;0.85;0.50;;;;;;;9.05;52.31;102716.84;5059533;28;20029;-69
2023/04/08 01:02:14;;;;;;;1.00;0.60;;;;;;;9.15;51.88;102718.50;5061306;28;20104;-69
2023/04/08 01:04:47;;;;;;;0.80;0.60;;;;;;;9.01;52.14;102716.28;5055908;28;20041;-69
2023/04/08 01:07:17;;;;;;;1.02;0.55;;;;;;;8.79;52.35;102698.59;5061721;28;20049;-69
2023/04/08 01:09:50;;;;;;;1.45;0.80;;;;;;;8.87;52.18;102714.88;5063936;28;20025;-69
2023/04/08 01:12:26;;;;;;;0.55;0.50;;;;;;;9.00;52.01;102711.03;5066761;28;20052;-69
2023/04/08 01:14:57;;;;;;;0.82;0.70;;;;;;;8.96;51.99;102715.00;5060658;28;20387;-68
2023/04/08 01:17:23;;;;;;;1.00;0.77;;;;;;;8.94;51.94;102718.69;5060957;28;20031;-69
2023/04/08 01:19:50;;;;;;;0.80;0.60;;;;;;;8.77;52.63;102713.97;5057199;28;20049;-68
2023/04/08 01:22:25;;;;;;;1.52;0.70;;;;;;;9.11;51.53;102719.78;5054167;28;20036;-68
2023/04/08 01:25:00;;;;;;;2.45;0.70;;;;;;;9.04;51.35;102713.31;5066435;28;20020;-69
2023/04/08 01:27:29;;;;;;;1.00;0.50;;;;;;;8.89;51.84;102687.88;5074715;28;20088;-69
2023/04/08 01:29:57;;;;;;;0.70;0.70;;;;;;;9.09;51.98;102723.59;5061605;28;20048;-69
2023/04/08 01:32:23;;;;;;;1.00;0.60;;;;;;;9.01;52.38;102718.97;5056676;28;20110;-68
2023/04/08 01:34:50;;;;;;;2.53;0.80;;;;;;;8.83;52.97;102713.44;5059985;28;20033;-69
2023/04/08 01:37:16;;;;;;;0.88;0.70;;;;;;;8.73;52.98;102726.00;5060634;28;20044;-69
2023/04/08 01:39:43;;;;;;;1.50;0.80;;;;;;;8.69;53.39;102716.53;5042473;28;20025;-69
2023/04/08 01:42:10;;;;;;;2.20;0.80;;;;;;;8.59;53.65;102724.56;5059763;28;20032;-68
2023/04/08 01:44:37;;;;;;;1.25;0.85;;;;;;;8.51;53.86;102724.44;5059393;28;20067;-69
2023/04/08 01:47:02;;;;;;;1.77;0.70;;;;;;;8.56;54.25;102718.63;5059769;28;20029;-69
2023/04/08 01:49:29;;;;;;;2.13;0.77;;;;;;;8.58;53.07;102719.34;5060885;28;20017;-69
2023/04/08 01:51:57;;;;;;;2.50;1.05;;;;;;;8.71;53.08;102736.03;5067830;28;20052;-69
2023/04/08 01:54:23;;;;;;;1.23;0.70;;;;;;;8.79;52.84;102735.34;5060567;28;20087;-68
2023/04/08 01:56:51;;;;;;;1.10;0.80;;;;;;;8.87;52.90;102733.66;5059555;28;20028;-69
2023/04/08 01:59:20;;;;;;;1.00;0.70;;;;;;;8.71;53.20;102728.00;5058083;28;20132;-69
2023/04/08 02:01:46;;;;;;;1.70;0.70;;;;;;;8.78;52.90;102736.34;5059417;28;20044;-69
2023/04/08 02:04:12;;;;;;;1.45;1.02;;;;;;;8.80;52.56;102732.50;5041403;28;20033;-69
2023/04/08 02:06:37;;;;;;;1.70;0.60;;;;;;;8.83;53.23;102742.94;5057214;28;20025;-69
2023/04/08 02:09:04;;;;;;;0.90;0.60;;;;;;;8.63;54.05;102750.13;5058325;28;20108;-69
2023/04/08 02:11:30;;;;;;;1.00;0.70;;;;;;;8.72;53.45;102748.47;5057845;28;20096;-69
2023/04/08 02:13:57;;;;;;;0.70;0.50;;;;;;;8.50;53.89;102724.56;5059009;28;20561;-69
2023/04/08 02:16:37;;;;;;;1.63;0.70;;;;;;;8.63;53.70;102747.44;5059409;28;20562;-69
2023/04/08 02:19:10;;;;;;;1.20;0.70;;;;;;;8.74;53.19;102746.50;5057128;28;20385;-69
2023/04/08 02:21:54;;;;;;;1.67;0.60;;;;;;;8.62;53.71;102739.56;5057316;28;20058;-69
2023/04/08 02:24:21;;;;;;;0.80;0.60;;;;;;;8.65;54.17;102761.59;5072786;28;20093;-69
2023/04/08 02:26:49;;;;;;;2.60;1.00;;;;;;;8.34;54.52;102733.94;5065997;28;20028;-69
2023/04/08 02:29:17;;;;;;;1.55;0.80;;;;;;;8.52;54.23;102757.47;5057714;28;20024;-68
2023/04/08 02:31:43;;;;;;;1.08;0.85;;;;;;;8.27;54.95;102738.16;5058806;28;20086;-68
2023/04/08 02:34:10;;;;;;;1.85;1.08;;;;;;;8.42;55.06;102754.75;5058632;28;20025;-69
2023/04/08 02:36:36;;;;;;;1.25;0.82;;;;;;;8.53;54.55;102757.31;5061215;28;20092;-69
2023/04/08 02:39:04;;;;;;;1.52;1.05;;;;;;;8.46;55.11;102756.19;5060065;28;20050;-69
2023/04/08 02:41:30;;;;;;;1.83;1.00;;;;;;;8.36;55.66;102749.91;5061784;28;20024;-68
2023/04/08 02:43:55;;;;;;;1.40;0.80;;;;;;;8.45;55.66;102754.50;5070863;28;20025;-69
2023/04/08 02:46:21;;;;;;;1.98;0.90;;;;;;;8.57;55.00;102756.06;5071632;28;20025;-69
2023/04/08 02:48:47;;;;;;;1.23;0.60;;;;;;;8.24;56.45;102751.84;5063296;28;20049;-68
2023/04/08 02:51:12;;;;;;;0.93;0.80;;;;;;;8.26;55.95;102757.06;5058776;28;20028;-69
2023/04/08 02:53:37;;;;;;;1.02;0.90;;;;;;;8.23;56.00;102767.09;5056472;28;20039;-68
2023/04/08 02:56:03;;;;;;;2.00;1.10;;;;;;;8.24;56.47;102759.88;5055665;28;20029;-68
2023/04/08 02:58:29;;;;;;;1.17;0.70;;;;;;;8.26;55.76;102741.00;5059182;28;20104;-69
2023/04/08 03:00:55;;;;;;;1.70;0.93;;;;;;;8.68;55.23;102766.69;5060452;28;20055;-69
2023/04/08 03:03:26;;;;;;;1.75;0.90;;;;;;;8.48;55.11;102743.47;5055043;28;20041;-69
2023/04/08 03:05:52;;;;;;;3.25;0.95;;;;;;;8.67;55.27;102761.44;5057827;28;20333;-69
2023/04/08 03:08:18;;;;;;;1.42;0.82;;;;;;;8.44;56.48;102766.19;5058613;28;20055;-68
2023/04/08 03:10:44;;;;;;;1.83;0.90;;;;;;;8.20;56.60;102742.38;5058765;28;20029;-70
2023/04/08 03:13:09;;;;;;;1.33;0.95;;;;;;;8.32;56.63;102772.63;5042474;28;20060;-69
2023/04/08 03:15:34;;;;;;;1.38;0.88;;;;;;;8.38;56.57;102766.75;5062695;28;20040;-70
2023/04/08 03:18:00;;;;;;;2.15;0.93;;;;;;;8.39;56.93;102771.13;5051978;28;20488;-71
2023/04/08 03:20:25;;;;;;;1.00;0.70;;;;;;;8.40;57.26;102775.50;5055799;28;20159;-68
2023/04/08 03:22:51;;;;;;;1.25;0.80;;;;;;;8.51;56.15;102772.72;5053496;28;20059;-69
2023/04/08 03:25:17;;;;;;;2.03;0.82;;;;;;;8.37;57.63;102775.75;5056331;28;20567;-69
2023/04/08 03:27:45;;;;;;;1.38;0.80;;;;;;;8.45;57.09;102771.44;5059134;28;20056;-72
2023/04/08 03:30:10;;;;;;;1.33;0.90;;;;;;;8.66;56.18;102773.16;5057054;28;20571;-70
2023/04/08 03:32:36;;;;;;;1.30;0.80;;;;;;;8.65;56.53;102771.47;5042197;28;20056;-70
2023/04/08 03:35:01;;;;;;;2.33;1.75;;;;;;;8.32;57.02;102757.38;5042438;28;20115;-70
2023/04/08 03:37:27;;;;;;;1.35;1.00;;;;;;;8.41;57.98;102772.69;5079868;28;20052;-70
2023/04/08 03:39:54;;;;;;;2.03;1.10;;;;;;;8.52;57.10;102770.88;5041536;28;20056;-69
2023/04/08 03:42:20;;;;;;;2.25;0.90;;;;;;;8.44;57.33;102766.19;5056956;28;20028;-69
2023/04/08 03:44:45;;;;;;;1.63;1.48;;;;;;;8.23;57.71;102763.56;5058811;28;20028;-68
2023/04/08 03:47:10;;;;;;;1.10;0.77;;;;;;;8.19;58.13;102770.19;5023933;28;20123;-69
2023/04/08 03:49:36;;;;;;;1.85;0.80;;;;;;;8.20;58.22;102764.66;5060420;28;20638;-69
2023/04/08 03:52:01;;;;;;;3.53;1.00;;;;;;;8.07;58.98;102769.41;5062322;28;20029;-69
2023/04/08 03:54:27;;;;;;;0.80;0.70;;;;;;;7.75;60.09;102753.47;5057299;28;20024;-68
2023/04/08 03:56:52;;;;;;;1.30;0.90;;;;;;;7.72;60.72;102761.78;5057196;28;20060;-68
2023/04/08 03:59:18;;;;;;;2.70;0.93;;;;;;;7.69;60.65;102757.53;5057086;28;20029;-68
2023/04/08 04:01:43;;;;;;;1.25;0.80;;;;;;;7.68;61.07;102763.00;5056519;28;20052;-67
2023/04/08 04:04:08;;;;;;;1.55;1.00;;;;;;;7.64;61.15;102762.41;5057861;28;20032;-68
2023/04/08 04:06:34;;;;;;;3.30;0.88;;;;;;;7.58;61.25;102759.41;5056321;28;20119;-69
2023/04/08 04:08:59;;;;;;;1.33;0.85;;;;;;;7.81;60.51;102752.91;5039147;28;20028;-69
2023/04/08 04:11:25;;;;;;;2.33;0.77;;;;;;;7.70;61.32;102745.81;5057218;28;20682;-69
2023/04/08 04:13:50;;;;;;;1.20;1.00;;;;;;;7.85;60.44;102756.22;5055324;28;20193;-68
2023/04/08 04:16:16;;;;;;;1.00;0.70;;;;;;;7.90;59.94;102738.72;5057127;28;20484;-69
2023/04/08 04:18:41;;;;;;;1.75;0.90;;;;;;;7.71;60.93;102752.88;5038990;28;20070;-69
2023/04/08 04:21:06;;;;;;;1.52;1.00;;;;;;;8.02;59.89;102765.47;5038506;28;20041;-69
2023/04/08 04:23:32;;;;;;;1.00;0.75;;;;;;;8.01;60.50;102764.59;5055268;28;20039;-69
2023/04/08 04:25:58;;;;;;;1.92;1.05;;;;;;;8.09;60.23;102764.78;5055875;28;20036;-69
2023/04/08 04:28:23;;;;;;;1.38;0.80;;;;;;;8.09;59.40;102756.72;5054926;28;20021;-69
2023/04/08 04:30:48;;;;;;;1.70;0.93;;;;;;;8.22;59.11;102751.13;5059270;28;20025;-69
2023/04/08 04:33:14;;;;;;;3.08;1.17;;;;;;;8.30;59.23;102766.53;5043337;28;20033;-69
2023/04/08 04:35:39;;;;;;;1.20;0.80;;;;;;;8.29;58.86;102754.97;5034472;28;20025;-69
2023/04/08 04:38:09;;;;;;;1.73;0.90;;;;;;;8.45;59.00;102768.75;5051002;28;20040;-69
2023/04/08 04:40:36;;;;;;;1.20;1.00;;;;;;;8.10;60.15;102777.19;5055327;28;20045;-69
2023/04/08 04:43:01;;;;;;;1.13;0.90;;;;;;;8.07;61.30;102773.94;5059497;28;20025;-69
2023/04/08 04:45:26;;;;;;;2.10;1.10;;;;;;;8.23;61.01;102774.28;5055365;28;20029;-69
2023/04/08 04:47:52;;;;;;;1.50;1.10;;;;;;;8.30;60.85;102778.13;5052862;28;20043;-69
2023/04/08 04:50:17;;;;;;;1.25;0.90;;;;;;;8.23;61.06;102783.16;5036512;28;20067;-69
2023/04/08 04:52:43;;;;;;;2.30;0.98;;;;;;;8.11;61.56;102788.75;5035804;28;20025;-70
2023/04/08 04:55:09;;;;;;;1.33;1.00;;;;;;;7.96;62.45;102761.47;5037340;28;20033;-69
2023/04/08 04:57:35;;;;;;;2.60;1.20;;;;;;;8.40;61.43;102788.91;5057098;28;20032;-69
2023/04/08 05:00:00;;;;;;;2.83;1.30;;;;;;;8.46;61.35;102780.31;5022697;28;20043;-69
2023/04/08 05:02:25;;;;;;;2.15;1.25;;;;;;;8.79;60.62;102792.53;5072362;28;20420;-69
2023/04/08 05:04:52;;;;;;;5.63;1.67;;;;;;;8.80;59.77;102796.91;5055280;28;20434;-69
2023/04/08 05:07:18;;;;;;;2.50;1.33;;;;;;;8.69;61.45;102792.53;5056176;28;20028;-68
2023/04/08 05:09:43;;;;;;;1.40;1.30;;;;;;;8.88;60.36;102793.56;5056200;28;20040;-68
2023/04/08 05:12:09;;;;;;;3.22;1.40;;;;;;;8.79;61.01;102795.22;5064920;28;20036;-69
2023/04/08 05:14:34;;;;;;;1.98;1.42;;;;;;;8.70;61.64;102796.06;5055555;28;20060;-69
2023/04/08 05:17:00;;;;;;;2.53;1.30;;;;;;;8.91;60.95;102794.13;5053856;28;20025;-69
2023/04/08 05:19:25;;;;;;;2.20;1.67;;;;;;;8.52;61.53;102746.75;5038513;28;20041;-68
2023/04/08 05:21:51;;;;;;;3.03;1.73;;;;;;;8.91;61.55;102794.13;5055555;28;20484;-69
2023/04/08 05:24:16;;;;;;;3.25;1.80;;;;;;;8.75;62.77;102799.19;5055594;28;20036;-69
2023/04/08 05:26:41;;;;;;;2.67;1.90;;;;;;;8.76;64.02;102795.50;5057580;28;20100;-69
2023/04/08 05:29:07;;;;;;;3.15;1.67;;;;;;;8.63;63.78;102778.81;5058966;28;20028;-69
2023/04/08 05:31:32;;;;;;;3.67;1.60;;;;;;;8.77;63.96;102794.50;5059076;28;20068;-69
2023/04/08 05:33:58;;;;;;;2.67;1.80;;;;;;;8.93;62.97;102797.50;5060210;28;20021;-69
2023/04/08 05:36:23;;;;;;;3.15;2.08;;;;;;;9.07;62.60;102807.00;5060182;28;20029;-69
2023/04/08 05:38:49;;;;;;;2.90;1.85;;;;;;;9.07;63.39;102795.41;5059871;28;20024;-69
2023/04/08 05:41:14;;;;;;;2.95;1.70;;;;;;;9.10;63.25;102789.75;5058515;28;20056;-69
2023/04/08 05:43:40;;;;;;;4.50;2.10;;;;;;;8.88;63.88;102774.78;5060392;28;20033;-69
2023/04/08 05:46:06;;;;;;;2.17;1.77;;;;;;;8.76;65.68;102800.88;5042080;28;20122;-69
2023/04/08 05:48:32;;;;;;;3.15;1.77;;;;;;;8.81;65.47;102801.31;5042124;28;20028;-69
2023/04/08 05:50:57;;;;;;;3.25;2.10;;;;;;;8.73;65.91;102809.19;5058310;28;20029;-69
2023/04/08 05:53:24;;;;;;;4.50;1.90;;;;;;;8.91;66.05;102814.75;5042112;28;20059;-69
2023/04/08 05:55:49;;;;;;;3.03;2.10;;;;;;;8.59;67.05;102823.00;5040748;28;20123;-69
2023/04/08 05:58:15;;;;;;;3.97;2.00;;;;;;;9.01;65.50;102822.84;5059456;28;20424;-68
2023/04/08 06:00:40;;;;;;;2.15;1.88;;;;;;;9.16;64.60;102818.72;5058249;28;20437;-69
2023/04/08 06:03:06;;;;;;;3.55;2.05;;;;;;;9.26;64.96;102832.16;5059128;28;20108;-69
2023/04/08 06:05:31;;;;;;;3.33;2.17;;;;;;;9.01;65.21;102834.41;5059698;28;20029;-69
2023/04/08 06:07:57;;;;;;;4.45;2.20;;;;;;;9.11;65.24;102834.44;5058026;28;20547;-68
2023/04/08 06:10:22;;;;;;;6.55;2.30;;;;;;;9.07;64.95;102839.25;5041934;28;20043;-69
2023/04/08 06:12:47;;;;;;;2.95;1.95;;;;;;;8.96;66.25;102841.19;5058651;28;20384;-69
2023/04/08 06:15:13;;;;;;;3.00;1.98;;;;;;;9.16;65.07;102842.91;5060225;28;20028;-69
2023/04/08 06:17:38;;;;;;;2.28;1.83;;;;;;;9.25;64.26;102849.28;5057589;28;20037;-68
2023/04/08 06:20:10;;;;;;;3.53;1.80;;;;;;;9.36;63.81;102841.91;5058851;28;20052;-69
2023/04/08 06:22:36;;;;;;;2.80;1.77;;;;;;;9.63;63.43;102851.97;5057582;28;20021;-69
2023/04/08 06:25:02;;;;;;;3.20;2.00;;;;;;;9.32;63.99;102843.19;5057192;28;20577;-69
2023/04/08 06:27:27;;;;;;;3.50;1.75;;;;;;;9.27;64.31;102852.66;5059079;28;20037;-68
2023/04/08 06:29:54;;;;;;;2.53;1.60;;;;;;;9.39;64.35;102865.81;5057536;28;20028;-69
2023/04/08 06:32:20;;;;;;;1.98;1.40;;;;;;;9.12;63.87;102857.59;5057766;28;20029;-69
2023/04/08 06:34:46;;;;;;;2.70;1.63;;;;;;;8.87;64.53;102843.72;5056968;28;20043;-69
2023/04/08 06:37:11;;;;;;;2.90;1.63;;;;;;;9.29;63.62;102869.50;5057356;28;20025;-69
2023/04/08 06:39:37;;;;;;;3.78;1.58;;;;;;;9.04;64.80;102868.19;5058821;28;20025;-69
2023/04/08 06:42:02;;;;;;;2.65;1.40;;;;;;;9.32;63.33;102870.06;5057044;28;20056;-69
2023/04/08 06:44:27;;;;;;;2.00;1.60;;;;;;;9.50;62.80;102882.78;5057392;28;20391;-69
2023/04/08 06:46:53;;;;;;;2.00;1.52;;;;;;;9.45;62.76;102868.94;5057205;28;20368;-69
2023/04/08 06:49:18;;;;;;;2.08;1.50;;;;;;;9.28;62.69;102879.41;5057010;28;20082;-69
2023/04/08 06:51:44;;;;;;;3.83;1.40;;;;;;;9.21;63.33;102880.13;5023831;28;20113;-69
2023/04/08 06:54:09;;;;;;;4.18;1.30;;;;;;;9.18;62.94;102881.22;5056521;28;20033;-70
2023/04/08 06:56:36;;;;;;;2.47;1.50;;;;;;;9.52;61.87;102892.44;5058201;28;20036;-69
2023/04/08 06:59:02;;;;;;;2.03;1.15;;;;;;;9.33;61.72;102893.25;5057000;28;20021;-69
2023/04/08 07:01:27;;;;;;;2.25;1.30;;;;;;;9.22;62.03;102887.16;5058924;28;20031;-69
2023/04/08 07:03:52;;;;;;;3.75;1.38;;;;;;;9.44;61.04;102876.16;5056968;28;20516;-69
2023/04/08 07:06:18;;;;;;;2.92;1.40;;;;;;;9.33;60.78;102855.63;5040054;28;20112;-69
2023/04/08 07:08:43;;;;;;;2.40;1.20;;;;;;;9.54;60.19;102879.72;5040056;28;20796;-69
2023/04/08 07:11:09;;;;;;;2.05;1.10;;;;;;;9.55;60.24;102881.41;5070308;28;20032;-69
2023/04/08 07:13:34;;;;;;;4.43;1.50;;;;;;;10.07;58.88;102881.06;5060262;28;20052;-69
2023/04/08 07:16:00;;;;;;;2.55;1.50;;;;;;;9.96;58.30;102884.75;5036610;28;20037;-69
2023/04/08 07:18:25;;;;;;;3.20;1.58;;;;;;;10.01;58.91;102884.34;5057959;28;20068;-69
2023/04/08 07:20:52;;;;;;;2.25;1.23;;;;;;;10.08;58.31;102872.84;5040283;28;20036;-69
2023/04/08 07:23:18;;;;;;;1.98;1.20;;;;;;;10.61;56.81;102878.66;5055743;28;20040;-69
2023/04/08 07:25:44;;;;;;;5.38;1.50;;;;;;;10.37;57.54;102887.25;5057820;28;20029;-69
2023/04/08 07:28:10;;;;;;;2.58;1.38;;;;;;;10.19;57.55;102887.13;5039724;28;20064;-69
2023/04/08 07:30:35;;;;;;;2.58;1.48;;;;;;;9.95;57.87;102864.22;5056365;28;20021;-69
2023/04/08 07:33:01;;;;;;;3.10;1.60;;;;;;;9.57;59.25;102867.81;5057814;28;20044;-69
2023/04/08 07:35:27;;;;;;;2.47;1.55;;;;;;;9.90;58.28;102869.22;5056245;28;20029;-69
2023/04/08 07:37:53;;;;;;;1.77;1.35;;;;;;;9.88;58.28;102893.53;5056769;28;20055;-68
2023/04/08 07:40:19;;;;;;;5.10;2.30;;;;;;;9.67;59.07;102895.56;5053643;28;20116;-68
2023/04/08 07:42:45;;;;;;;2.42;1.58;;;;;;;9.97;58.81;102874.88;5055759;28;20495;-69
2023/04/08 07:45:10;;;;;;;3.55;1.50;;;;;;;9.60;58.94;102865.72;5056300;28;20406;-69
2023/04/08 07:47:36;;;;;;;2.35;1.35;;;;;;;9.74;59.16;102903.91;5055982;28;20161;-69
2023/04/08 07:50:02;;;;;;;2.25;1.45;;;;;;;9.52;59.17;102895.13;5055579;28;20039;-69
2023/04/08 07:52:29;;;;;;;2.50;1.50;;;;;;;9.67;58.84;102900.06;5055245;28;20029;-69
2023/04/08 07:54:55;;;;;;;4.25;1.50;;;;;;;9.62;59.85;102892.44;5055490;28;20033;-69
2023/04/08 07:57:20;;;;;;;1.77;1.30;;;;;;;9.59;60.15;102876.59;5065259;28;20087;-69
2023/04/08 07:59:45;;;;;;;2.38;1.50;;;;;;;9.81;60.26;102897.81;5065032;28;20544;-69
2023/04/08 08:02:11;;;;;;;3.78;1.63;;;;;;;10.24;58.88;102888.38;5053871;28;20035;-69
2023/04/08 08:04:36;;;;;;;2.42;1.75;;;;;;;10.04;59.15;102898.34;5055837;28;20060;-69
2023/04/08 08:07:02;;;;;;;5.55;2.30;;;;;;;10.26;59.33;102907.94;5056017;28;20055;-69
2023/04/08 08:09:27;;;;;;;5.22;2.15;;;;;;;10.57;58.54;102908.56;5056493;28;20454;-69
2023/04/08 08:11:53;;;;;;;3.78;1.88;;;;;;;10.43;59.23;102905.47;5056975;28;20066;-69
2023/04/08 08:14:18;;;;;;;3.97;1.75;;;;;;;10.80;57.89;102900.94;5055220;28;20074;-69
2023/04/08 08:16:44;;;;;;;4.18;2.17;;;;;;;10.88;58.00;102896.66;5022519;28;20116;-68
2023/04/08 08:19:11;;;;;;;3.80;1.92;;;;;;;11.01;57.33;102897.16;5037828;28;20056;-69
2023/04/08 08:21:36;;;;;;;3.78;1.83;;;;;;;11.13;57.42;102912.13;5055113;28;20045;-69
2023/04/08 08:24:02;;;;;;;3.35;2.00;;;;;;;10.89;57.63;102906.44;5055618;28;20043;-69
2023/04/08 08:26:27;;;;;;;3.38;1.70;;;;;;;11.10;57.52;102912.41;5038580;28;20454;-69
2023/04/08 08:28:53;;;;;;;5.10;2.00;;;;;;;10.90;58.27;102908.97;5056863;28;20136;-69
2023/04/08 08:31:19;;;;;;;4.97;2.15;;;;;;;10.93;58.11;102918.63;5058208;28;20029;-69
2023/04/08 08:33:45;;;;;;;5.68;2.20;;;;;;;10.89;57.97;102901.88;5062385;28;20048;-69
2023/04/08 08:36:11;;;;;;;3.05;1.90;;;;;;;10.78;58.35;102907.47;5038885;28;20040;-69
2023/04/08 08:38:36;;;;;;;4.38;2.10;;;;;;;11.28;57.33;102932.16;5055996;28;20025;-69
2023/04/08 08:41:02;;;;;;;2.55;1.80;;;;;;;11.28;56.73;102925.91;5038877;28;20028;-69
2023/04/08 08:43:28;;;;;;;3.92;2.00;;;;;;;11.37;56.41;102919.63;5055002;28;20072;-69
2023/04/08 08:45:54;;;;;;;3.55;1.80;;;;;;;11.60;56.29;102925.41;5055820;28;20024;-69
2023/04/08 08:48:20;;;;;;;4.68;1.90;;;;;;;11.43;56.67;102921.69;5056765;28;20044;-69
2023/04/08 08:50:46;;;;;;;3.45;2.03;;;;;;;11.52;56.39;102922.63;5055204;28;20032;-69
2023/04/08 08:53:11;;;;;;;5.78;2.35;;;;;;;11.62;56.10;102920.72;5054825;28;20492;-69
2023/04/08 08:55:38;;;;;;;3.92;2.33;;;;;;;11.56;56.17;102924.03;5056437;28;20093;-69
2023/04/08 08:58:06;;;;;;;2.97;2.08;;;;;;;11.43;56.45;102929.78;5056507;28;20060;-69
2023/04/08 09:00:35;;;;;;;2.95;2.33;;;;;;;11.67;55.98;102907.59;5039986;28;20041;-69
2023/04/08 09:03:19;;;;;;;4.07;2.00;;;;;;;11.71;55.90;102927.84;5059296;28;20055;-69
2023/04/08 09:05:53;;;;;;;4.90;2.40;;;;;;;11.58;56.24;102926.56;5066344;28;20094;-69
2023/04/08 09:08:28;;;;;;;3.97;2.20;;;;;;;11.81;55.85;102924.25;5059931;28;20115;-69
2023/04/08 09:10:55;;;;;;;3.47;2.15;;;;;;;12.29;55.08;102914.88;5061668;28;20031;-69
2023/04/08 09:13:23;;;;;;;5.22;2.30;;;;;;;11.96;54.76;102896.59;5058976;28;20116;-69
2023/04/08 09:16:25;;;;;;;3.15;2.10;;;;;;;12.12;54.54;102912.06;5042726;28;20037;-68
2023/04/08 09:18:51;;;;;;;4.40;2.10;;;;;;;12.02;55.07;102915.84;5021006;28;20141;-69
2023/04/08 09:21:17;;;;;;;4.70;2.42;;;;;;;12.27;54.83;102914.16;5055595;28;20075;-69
2023/04/08 09:23:50;;;;;;;3.92;2.40;;;;;;;12.44;53.35;102913.25;5042323;28;20033;-69
2023/04/08 09:26:18;;;;;;;4.50;2.13;;;;;;;12.43;53.75;102908.88;5060111;28;20029;-69
2023/04/08 09:29:06;;;;;;;5.05;2.05;;;;;;;12.72;52.66;102903.13;5059506;28;20032;-69
2023/04/08 09:31:37;;;;;;;4.32;2.20;;;;;;;12.84;52.25;102900.97;5060221;28;20043;-69
2023/04/08 09:34:18;;;;;;;5.15;2.30;;;;;;;12.63;52.90;102902.22;5058528;28;20056;-69
2023/04/08 09:36:44;;;;;;;3.72;2.17;;;;;;;12.84;53.19;102901.81;5058457;28;20025;-69
2023/04/08 09:39:10;;;;;;;4.30;2.30;;;;;;;13.25;52.35;102899.28;5057697;28;20040;-69
2023/04/08 09:41:37;;;;;;;3.60;2.10;;;;;;;12.95;52.85;102900.69;5059598;28;20044;-69
2023/04/08 09:44:09;;;;;;;5.90;2.90;;;;;;;12.99;52.36;102903.91;5040766;28;20033;-69
2023/04/08 09:46:49;;;;;;;3.08;2.15;;;;;;;13.10;52.32;102896.31;5060438;28;20071;-69
2023/04/08 09:49:24;;;;;;;3.58;2.40;;;;;;;13.58;51.67;102894.75;5058044;28;20375;-69
2023/04/08 09:52:23;;;;;;;3.80;2.40;;;;;;;13.59;51.20;102893.75;5060214;28;20035;-69
2023/04/08 09:54:54;;;;;;;4.60;2.35;;;;;;;13.40;51.17;102910.28;5059897;28;20039;-69
2023/04/08 09:57:40;;;;;;;6.35;2.45;;;;;;;13.88;49.95;102896.97;5066566;28;20025;-69
2023/04/08 10:00:06;;;;;;;3.72;2.45;;;;;;;14.05;50.45;102896.78;5059955;28;20060;-69
2023/04/08 10:02:39;;;;;;;3.80;2.40;;;;;;;13.95;50.22;102897.97;5061246;28;20032;-69
2023/04/08 10:05:06;;;;;;;6.30;2.30;;;;;;;14.10;50.24;102894.41;5060115;28;20040;-69
2023/04/08 10:07:34;;;;;;;5.85;2.80;;;;;;;14.25;49.87;102880.16;5039388;28;20052;-69
2023/04/08 10:10:00;;;;;;;6.00;3.00;;;;;;;13.81;50.36;102892.25;5058358;28;20105;-69
2023/04/08 10:12:26;;;;;;;4.28;2.67;;;;;;;13.67;50.58;102889.34;5057861;28;20040;-69
2023/04/08 10:15:26;;;;;;;5.25;2.92;;;;;;;13.83;50.15;102889.34;5058814;28;20020;-69
2023/04/08 10:18:13;;;;;;;5.45;2.60;;;;;;;14.05;49.73;102885.94;5057345;28;20040;-69
2023/04/08 10:20:38;;;;;;;4.30;2.92;;;;;;;14.68;49.31;102894.28;5059170;28;20592;-69
2023/04/08 10:23:09;;;;;;;8.02;2.90;;;;;;;14.55;49.64;102884.84;5057837;28;20493;-69
2023/04/08 10:25:35;;;;;;;3.45;2.60;;;;;;;14.33;49.20;102880.97;5060087;28;20052;-69
2023/04/08 10:28:21;;;;;;;6.50;3.00;;;;;;;14.66;49.39;102889.03;5060458;28;20040;-69
2023/04/08 10:30:50;;;;;;;4.25;2.80;;;;;;;14.47;49.46;102881.28;5060199;28;20171;-69
2023/04/08 10:33:28;;;;;;;3.58;2.58;;;;;;;14.82;48.89;102881.88;5042224;28;20036;-69
2023/04/08 10:36:14;;;;;;;5.20;3.10;;;;;;;14.64;48.86;102882.97;5058799;28;20114;-69
2023/04/08 10:38:41;;;;;;;7.15;3.35;;;;;;;14.61;49.04;102874.34;5059103;28;20067;-69
2023/04/08 10:41:07;;;;;;;7.53;3.38;;;;;;;14.37;49.56;102875.22;5058342;28;20037;-69
2023/04/08 10:43:33;;;;;;;5.90;3.17;;;;;;;14.31;49.88;102865.94;5059467;28;20100;-69
2023/04/08 10:45:59;;;;;;;7.10;2.90;;;;;;;14.63;48.75;102872.28;5058830;28;20071;-69
2023/04/08 10:48:25;;;;;;;6.57;3.08;;;;;;;15.04;48.44;102865.66;5065746;28;20013;-70
2023/04/08 10:50:56;;;;;;;6.57;2.97;;;;;;;14.94;48.52;102869.63;5042675;28;20031;-69
2023/04/08 10:53:28;;;;;;;7.80;3.10;;;;;;;14.93;47.91;102871.50;5058994;28;20025;-69
2023/04/08 10:56:15;;;;;;;4.72;3.10;;;;;;;14.27;49.66;102867.28;5059394;28;20025;-69
2023/04/08 10:58:48;;;;;;;9.07;3.10;;;;;;;14.15;49.86;102847.03;5057044;28;20036;-69
2023/04/08 11:01:13;;;;;;;6.03;3.33;;;;;;;14.37;49.75;102854.41;5058351;28;20024;-69
2023/04/08 11:03:38;;;;;;;5.47;3.03;;;;;;;14.84;49.07;102863.56;5057850;28;20123;-69
2023/04/08 11:06:04;;;;;;;4.80;2.70;;;;;;;15.03;48.51;102860.38;5057633;28;20029;-69
2023/04/08 11:08:35;;;;;;;4.78;3.05;;;;;;;15.52;47.61;102850.03;5058668;28;20128;-69
2023/04/08 11:11:02;;;;;;;9.20;3.50;;;;;;;14.69;49.02;102858.88;5058070;28;20045;-69
2023/04/08 11:13:28;;;;;;;5.75;3.20;;;;;;;14.99;48.94;102856.34;5041641;28;20031;-69
2023/04/08 11:15:58;;;;;;;6.85;2.95;;;;;;;15.11;47.90;102862.22;5041715;28;20033;-69
2023/04/08 11:18:24;;;;;;;5.43;3.05;;;;;;;15.24;48.04;102863.31;5058089;28;20049;-69
2023/04/08 11:20:51;;;;;;;6.95;3.13;;;;;;;15.27;48.18;102856.69;5058050;28;20514;-69
2023/04/08 11:23:17;;;;;;;4.95;3.05;;;;;;;15.56;47.53;102855.09;5058982;28;20033;-69
2023/04/08 11:25:44;;;;;;;5.78;3.15;;;;;;;15.14;48.48;102853.75;5059601;28;20036;-69
2023/04/08 11:28:11;;;;;;;9.20;3.13;;;;;;;15.33;48.14;102860.53;5057315;28;20084;-69
2023/04/08 11:30:39;;;;;;;7.20;2.90;;;;;;;15.01;49.19;102852.44;5059265;28;20100;-69
2023/04/08 11:33:04;;;;;;;5.97;3.28;;;;;;;15.48;48.20;102837.03;5059482;28;20035;-69